createdAt,value
2017-09-10T00:01:26.691Z,100237.63
2017-09-10T00:03:55.064Z,100240.82
2017-09-10T00:06:23.649Z,100242.38
2017-09-10T00:08:57.342Z,100247.77
2017-09-10T00:11:25.954Z,100246.77
2017-09-10T00:13:54.853Z,100243.34
2017-09-10T00:16:23.246Z,100249.44
2017-09-10T00:18:51.829Z,100253.56
2017-09-10T00:21:20.967Z,100252.05
2017-09-10T00:23:49.280Z,100257.61
2017-09-10T00:26:17.597Z,100259.40
2017-09-10T00:28:45.941Z,100257.61
2017-09-10T00:31:14.262Z,100256.72
2017-09-10T00:33:44.558Z,100254.59
2017-09-10T00:36:13.611Z,100256.08
2017-09-10T00:38:44.041Z,100254.17
2017-09-10T00:41:12.378Z,100250.91
2017-09-10T00:43:40.727Z,100254.09
2017-09-10T00:46:11.072Z,100253.91
2017-09-10T00:48:40.667Z,100253.91
2017-09-10T00:51:09.276Z,100257.10
2017-09-10T00:53:38.401Z,100261.74
2017-09-10T00:56:06.742Z,100260.52
2017-09-10T00:58:35.906Z,100257.63
2017-09-10T01:01:04.714Z,100260.78
2017-09-10T01:03:33.017Z,100260.78
2017-09-10T01:06:01.320Z,100259.34
2017-09-10T01:08:30.417Z,100257.26
2017-09-10T01:10:59.032Z,100264.92
2017-09-10T01:13:28.105Z,100261.20
2017-09-10T01:15:57.783Z,100254.59
2017-09-10T01:18:26.637Z,100261.09
2017-09-10T01:20:57.323Z,100259.45
2017-09-10T01:23:27.271Z,100251.95
2017-09-10T01:25:56.338Z,100256.55
2017-09-10T01:28:24.664Z,100267.47
2017-09-10T01:30:54.893Z,100266.54
2017-09-10T01:33:23.215Z,100270.55
2017-09-10T01:35:51.548Z,100269.77
2017-09-10T01:38:19.862Z,100269.06
2017-09-10T01:40:48.161Z,100278.75
2017-09-10T01:43:16.495Z,100280.16
2017-09-10T01:45:45.198Z,100278.84
2017-09-10T01:48:13.584Z,100283.78
2017-09-10T01:50:41.948Z,100289.02
2017-09-10T01:53:11.086Z,100283.27
2017-09-10T01:55:39.406Z,100286.57
2017-09-10T01:58:07.885Z,100287.63
2017-09-10T02:00:37.417Z,100286.47
2017-09-10T02:03:08.241Z,100287.72
2017-09-10T02:05:36.584Z,100292.91
2017-09-10T02:08:07.488Z,100287.07
2017-09-10T02:10:35.790Z,100276.59
2017-09-10T02:13:05.935Z,100285.95
2017-09-10T02:15:34.245Z,100283.12
2017-09-10T02:18:03.569Z,100273.67
2017-09-10T02:20:32.190Z,100277.98
2017-09-10T02:23:01.815Z,100276.35
2017-09-10T02:25:30.154Z,100270.30
2017-09-10T02:27:59.256Z,100274.74
2017-09-10T02:30:28.324Z,100274.03
2017-09-10T02:32:56.811Z,100268.71
2017-09-10T02:35:26.298Z,100269.94
2017-09-10T02:40:32.671Z,100273.73
2017-09-10T02:43:04.113Z,100268.60
2017-09-10T02:45:32.555Z,100263.15
2017-09-10T02:48:01.749Z,100261.08
2017-09-10T02:50:32.063Z,100265.00
2017-09-10T02:53:00.369Z,100263.77
2017-09-10T02:55:29.068Z,100266.18
2017-09-10T02:57:58.143Z,100272.86
2017-09-10T03:00:26.767Z,100262.44
2017-09-10T03:02:57.055Z,100266.86
2017-09-10T03:05:26.203Z,100272.45
2017-09-10T03:07:54.584Z,100268.45
2017-09-10T03:10:23.666Z,100274.94
2017-09-10T03:12:52.755Z,100279.05
2017-09-10T03:15:21.080Z,100270.92
2017-09-10T03:17:52.311Z,100272.38
2017-09-10T03:20:20.636Z,100277.22
2017-09-10T03:22:48.964Z,100272.83
2017-09-10T03:25:18.660Z,100267.29
2017-09-10T03:27:48.090Z,100267.23
2017-09-10T03:30:17.178Z,100270.95
2017-09-10T03:32:46.291Z,100270.75
2017-09-10T03:35:15.383Z,100264.29
2017-09-10T03:37:44.447Z,100267.37
2017-09-10T03:40:12.762Z,100278.08
2017-09-10T03:42:42.187Z,100277.89
2017-09-10T03:45:10.524Z,100283.28
2017-09-10T03:47:38.889Z,100287.40
2017-09-10T03:50:08.283Z,100292.34
2017-09-10T03:52:36.575Z,100290.80
2017-09-10T03:55:05.629Z,100292.96
2017-09-10T03:57:34.868Z,100286.77
2017-09-10T04:00:03.215Z,100287.09
2017-09-10T04:02:32.303Z,100286.39
2017-09-10T04:05:01.419Z,100284.34
2017-09-10T04:07:30.514Z,100290.38
2017-09-10T04:09:59.582Z,100290.08
2017-09-10T04:12:27.881Z,100290.30
2017-09-10T04:14:56.184Z,100298.42
2017-09-10T04:17:25.311Z,100292.36
2017-09-10T04:19:53.606Z,100293.23
2017-09-10T04:22:23.424Z,100297.97
2017-09-10T04:24:51.720Z,100296.02
2017-09-10T04:27:20.062Z,100288.81
2017-09-10T04:29:48.940Z,100294.17
2017-09-10T04:32:17.669Z,100292.23
2017-09-10T04:34:45.981Z,100295.02
2017-09-10T04:37:14.273Z,100290.49
2017-09-10T04:39:42.711Z,100284.33
2017-09-10T04:42:11.032Z,100280.84
2017-09-10T04:44:40.124Z,100284.14
2017-09-10T04:47:08.478Z,100298.20
2017-09-10T04:49:36.801Z,100301.91
2017-09-10T04:52:05.445Z,100297.08
2017-09-10T04:54:33.801Z,100297.91
2017-09-10T04:57:02.219Z,100298.52
2017-09-10T04:59:30.586Z,100300.59
2017-09-10T05:01:59.720Z,100302.58
2017-09-10T05:04:28.058Z,100301.52
2017-09-10T05:06:57.198Z,100307.67
2017-09-10T05:09:25.522Z,100309.81
2017-09-10T05:11:54.619Z,100312.38
2017-09-10T05:14:23.739Z,100311.56
2017-09-10T05:16:52.829Z,100308.37
2017-09-10T05:19:21.944Z,100306.41
2017-09-10T05:21:50.245Z,100310.72
2017-09-10T05:24:18.581Z,100310.31
2017-09-10T05:26:46.994Z,100316.26
2017-09-10T05:29:16.064Z,100315.44
2017-09-10T05:31:44.361Z,100314.71
2017-09-10T05:34:13.047Z,100313.38
2017-09-10T05:36:42.135Z,100308.03
2017-09-10T05:39:13.395Z,100324.53
2017-09-10T05:41:42.495Z,100321.53
2017-09-10T05:44:11.582Z,100318.77
2017-09-10T05:46:39.999Z,100314.84
2017-09-10T05:49:09.077Z,100316.11
2017-09-10T05:51:42.719Z,100322.26
2017-09-10T05:54:11.273Z,100315.66
2017-09-10T05:56:40.380Z,100316.02
2017-09-10T05:59:08.784Z,100314.96
2017-09-10T06:01:37.124Z,100314.42
2017-09-10T06:04:06.342Z,100316.88
2017-09-10T06:06:35.850Z,100319.39
2017-09-10T06:09:04.230Z,100327.49
2017-09-10T06:11:33.301Z,100322.42
2017-09-10T06:14:01.635Z,100336.59
2017-09-10T06:16:30.682Z,100334.38
2017-09-10T06:18:59.031Z,100336.09
2017-09-10T06:21:27.464Z,100343.05
2017-09-10T06:23:59.791Z,100343.38
2017-09-10T06:26:28.098Z,100333.59
2017-09-10T06:28:56.391Z,100336.95
2017-09-10T06:31:24.852Z,100335.63
2017-09-10T06:33:53.172Z,100332.41
2017-09-10T06:36:23.089Z,100334.47
2017-09-10T06:38:51.411Z,100334.22
2017-09-10T06:41:19.727Z,100331.70
2017-09-10T06:43:48.042Z,100332.13
2017-09-10T06:46:17.195Z,100323.74
2017-09-10T06:48:57.732Z,100325.61
2017-09-10T06:51:27.417Z,100331.60
2017-09-10T06:53:57.384Z,100330.28
2017-09-10T06:56:25.724Z,100325.73
2017-09-10T06:58:54.780Z,100335.41
2017-09-10T07:01:23.093Z,100329.56
2017-09-10T07:03:51.400Z,100328.02
2017-09-10T07:06:20.489Z,100319.98
2017-09-10T07:08:49.613Z,100325.77
2017-09-10T07:11:19.124Z,100320.10
2017-09-10T07:13:47.436Z,100327.28
2017-09-10T07:16:16.141Z,100318.55
2017-09-10T07:18:44.440Z,100319.06
2017-09-10T07:21:12.795Z,100318.73
2017-09-10T07:23:41.093Z,100325.36
2017-09-10T07:26:10.269Z,100329.81
2017-09-10T07:28:38.605Z,100333.99
2017-09-10T07:31:07.712Z,100338.33
2017-09-10T07:33:36.783Z,100339.53
2017-09-10T07:36:05.451Z,100331.67
2017-09-10T07:38:33.766Z,100327.07
2017-09-10T07:41:02.868Z,100332.88
2017-09-10T07:43:31.204Z,100342.22
2017-09-10T07:45:59.560Z,100339.63
2017-09-10T07:48:27.925Z,100344.67
2017-09-10T07:50:57.006Z,100347.41
2017-09-10T07:53:25.331Z,100351.11
2017-09-10T07:55:53.648Z,100355.67
2017-09-10T07:58:22.764Z,100355.68
2017-09-10T08:00:52.414Z,100357.14
2017-09-10T08:03:21.982Z,100359.94
2017-09-10T08:05:50.289Z,100349.28
2017-09-10T08:08:19.385Z,100352.09
2017-09-10T08:10:48.482Z,100356.80
2017-09-10T08:13:17.551Z,100347.12
2017-09-10T08:15:45.889Z,100346.29
2017-09-10T08:18:14.953Z,100345.69
2017-09-10T08:20:44.947Z,100340.38
2017-09-10T08:23:13.279Z,100333.44
2017-09-10T08:25:41.609Z,100334.00
2017-09-10T08:28:09.943Z,100339.39
2017-09-10T08:30:39.027Z,100341.52
2017-09-10T08:33:07.379Z,100338.58
2017-09-10T08:35:35.699Z,100334.45
2017-09-10T08:38:04.010Z,100340.14
2017-09-10T08:40:32.323Z,100338.35
2017-09-10T08:43:00.661Z,100334.28
2017-09-10T08:45:29.737Z,100333.77
2017-09-10T08:47:58.809Z,100332.67
2017-09-10T08:50:27.167Z,100335.05
2017-09-10T08:52:55.487Z,100339.27
2017-09-10T08:55:24.503Z,100336.01
2017-09-10T08:57:52.860Z,100341.01
2017-09-10T09:00:21.183Z,100343.48
2017-09-10T09:02:50.347Z,100349.22
2017-09-10T09:05:18.684Z,100349.63
2017-09-10T09:07:47.016Z,100351.35
2017-09-10T09:10:15.331Z,100350.64
2017-09-10T09:12:44.416Z,100349.27
2017-09-10T09:15:12.795Z,100353.00
2017-09-10T09:17:41.166Z,100356.66
2017-09-10T09:20:09.514Z,100353.95
2017-09-10T09:22:37.840Z,100348.63
2017-09-10T09:25:06.147Z,100346.45
2017-09-10T09:27:35.247Z,100345.20
2017-09-10T09:30:04.321Z,100346.50
2017-09-10T09:32:33.541Z,100340.67
2017-09-10T09:35:02.635Z,100343.55
2017-09-10T09:37:31.733Z,100340.08
2017-09-10T09:40:00.048Z,100341.80
2017-09-10T09:42:28.377Z,100338.39
2017-09-10T09:44:56.689Z,100341.56
2017-09-10T09:47:25.045Z,100343.20
2017-09-10T09:49:53.343Z,100330.93
2017-09-10T09:52:22.425Z,100330.09
2017-09-10T09:54:53.771Z,100330.21
2017-09-10T09:57:22.094Z,100323.69
2017-09-10T09:59:51.147Z,100331.26
2017-09-10T10:02:19.441Z,100318.66
2017-09-10T10:04:47.815Z,100319.63
2017-09-10T10:07:16.120Z,100318.68
2017-09-10T10:09:44.419Z,100322.64
2017-09-10T10:12:13.553Z,100315.47
2017-09-10T10:14:41.843Z,100307.58
2017-09-10T10:17:10.184Z,100312.36
2017-09-10T10:19:39.255Z,100306.49
2017-09-10T10:22:07.573Z,100303.01
2017-09-10T10:24:35.863Z,100297.59
2017-09-10T10:27:04.947Z,100303.95
2017-09-10T10:29:41.530Z,100304.27
2017-09-10T10:32:11.030Z,100299.27
2017-09-10T10:34:40.124Z,100296.84
2017-09-10T10:37:09.230Z,100288.06
2017-09-10T10:39:38.526Z,100284.94
2017-09-10T10:42:08.897Z,100294.55
2017-09-10T10:44:37.938Z,100290.14
2017-09-10T10:47:07.720Z,100280.09
2017-09-10T10:49:36.035Z,100287.20
2017-09-10T10:52:06.211Z,100292.17
2017-09-10T10:54:34.892Z,100283.56
2017-09-10T10:57:03.905Z,100286.73
2017-09-10T10:59:32.215Z,100278.07
2017-09-10T11:02:00.556Z,100279.47
2017-09-10T11:04:29.619Z,100274.52
2017-09-10T11:06:57.931Z,100270.97
2017-09-10T11:09:26.228Z,100268.00
2017-09-10T11:11:54.528Z,100270.77
2017-09-10T11:14:22.832Z,100273.47
2017-09-10T11:16:51.149Z,100268.45
2017-09-10T11:19:20.211Z,100266.95
2017-09-10T11:21:48.656Z,100269.69
2017-09-10T11:24:16.980Z,100261.89
2017-09-10T11:26:45.322Z,100264.33
2017-09-10T11:29:14.505Z,100256.26
2017-09-10T11:31:42.808Z,100256.45
2017-09-10T11:34:11.149Z,100270.87
2017-09-10T11:36:39.779Z,100250.59
2017-09-10T11:39:08.083Z,100250.27
2017-09-10T11:41:36.414Z,100262.23
2017-09-10T11:44:05.488Z,100253.59
2017-09-10T11:46:33.838Z,100242.16
2017-09-10T11:49:02.202Z,100248.09
2017-09-10T11:51:31.210Z,100245.88
2017-09-10T11:53:59.524Z,100242.38
2017-09-10T11:56:27.831Z,100236.60
2017-09-10T11:58:56.163Z,100240.84
2017-09-10T12:01:24.518Z,100243.45
2017-09-10T12:03:52.819Z,100235.94
2017-09-10T12:06:21.102Z,100248.66
2017-09-10T12:08:49.413Z,100247.80
2017-09-10T12:11:17.788Z,100231.81
2017-09-10T12:13:46.127Z,100244.98
2017-09-10T12:16:15.198Z,100237.40
2017-09-10T12:18:43.491Z,100232.19
2017-09-10T12:21:11.938Z,100229.99
2017-09-10T12:23:40.244Z,100224.28
2017-09-10T12:26:08.540Z,100221.92
2017-09-10T12:28:36.845Z,100219.54
2017-09-10T12:31:05.158Z,100217.84
2017-09-10T12:33:33.725Z,100235.98
2017-09-10T12:36:02.061Z,100227.77
2017-09-10T12:38:31.825Z,100231.38
2017-09-10T12:41:00.135Z,100231.20
2017-09-10T12:43:28.454Z,100232.58
2017-09-10T12:45:57.541Z,100219.45
2017-09-10T12:48:25.848Z,100227.54
2017-09-10T12:50:54.904Z,100212.63
2017-09-10T12:53:23.221Z,100217.55
2017-09-10T12:55:52.353Z,100210.91
2017-09-10T12:58:20.643Z,100210.36
2017-09-10T13:00:48.964Z,100219.59
2017-09-10T13:03:17.261Z,100208.05
2017-09-10T13:05:45.620Z,100215.58
2017-09-10T13:08:13.958Z,100223.84
2017-09-10T13:10:42.280Z,100210.44
2017-09-10T13:13:10.621Z,100209.98
2017-09-10T13:15:39.723Z,100208.68
2017-09-10T13:18:08.073Z,100201.50
2017-09-10T13:20:36.678Z,100210.23
2017-09-10T13:23:05.019Z,100201.52
2017-09-10T13:25:33.350Z,100204.47
2017-09-10T13:28:01.700Z,100192.30
2017-09-10T13:30:30.829Z,100192.67
2017-09-10T13:32:59.225Z,100191.02
2017-09-10T13:35:27.531Z,100185.89
2017-09-10T13:37:55.839Z,100192.26
2017-09-10T13:40:24.193Z,100192.72
2017-09-10T13:42:52.533Z,100193.11
2017-09-10T13:45:21.598Z,100193.80
2017-09-10T13:47:49.912Z,100190.14
2017-09-10T13:50:18.227Z,100173.98
2017-09-10T13:52:46.566Z,100173.20
2017-09-10T13:55:14.884Z,100171.60
2017-09-10T13:57:43.484Z,100164.67
2017-09-10T14:00:11.828Z,100163.77
2017-09-10T14:02:40.894Z,100168.81
2017-09-10T14:05:09.180Z,100175.69
2017-09-10T14:07:38.297Z,100164.96
2017-09-10T14:10:07.513Z,100172.59
2017-09-10T14:12:36.883Z,100159.52
2017-09-10T14:15:05.188Z,100160.53
2017-09-10T14:17:34.264Z,100158.73
2017-09-10T14:20:02.654Z,100160.84
2017-09-10T14:22:31.716Z,100154.69
2017-09-10T14:25:00.655Z,100153.85
2017-09-10T14:27:30.648Z,100149.63
2017-09-10T14:29:58.993Z,100147.44
2017-09-10T14:32:28.073Z,100143.75
2017-09-10T14:34:57.148Z,100125.08
2017-09-10T14:37:25.501Z,100126.45
2017-09-10T14:39:54.600Z,100114.48
2017-09-10T14:42:22.922Z,100141.34
2017-09-10T14:44:51.592Z,100117.98
2017-09-10T14:47:19.896Z,100109.66
2017-09-10T14:49:48.230Z,100110.02
2017-09-10T14:52:16.558Z,100119.13
2017-09-10T14:54:44.881Z,100113.14
2017-09-10T14:57:13.211Z,100117.27
2017-09-10T14:59:41.970Z,100115.31
2017-09-10T15:02:10.253Z,100112.36
2017-09-10T15:04:38.586Z,100111.61
2017-09-10T15:07:08.459Z,100111.51
2017-09-10T15:09:37.712Z,100113.59
2017-09-10T15:12:06.794Z,100105.59
2017-09-10T15:14:35.091Z,100104.94
2017-09-10T15:17:04.196Z,100110.81
2017-09-10T15:19:32.513Z,100114.02
2017-09-10T15:22:00.804Z,100102.34
2017-09-10T15:24:29.112Z,100109.70
2017-09-10T15:26:57.406Z,100094.77
2017-09-10T15:29:25.735Z,100090.48
2017-09-10T15:31:54.046Z,100080.20
2017-09-10T15:34:25.635Z,100070.78
2017-09-10T15:36:54.963Z,100073.78
2017-09-10T15:39:24.772Z,100069.48
2017-09-10T15:41:53.874Z,100067.05
2017-09-10T15:44:22.972Z,100063.16
2017-09-10T15:46:52.107Z,100059.70
2017-09-10T15:49:20.455Z,100052.52
2017-09-10T15:51:49.622Z,100043.84
2017-09-10T15:54:18.824Z,100047.91
2017-09-10T15:56:47.123Z,100048.27
2017-09-10T15:59:15.680Z,100033.36
2017-09-10T16:01:44.056Z,100032.28
2017-09-10T16:04:12.357Z,100027.94
2017-09-10T16:06:40.675Z,100020.16
2017-09-10T16:09:09.019Z,100020.37
2017-09-10T16:11:38.179Z,100018.09
2017-09-10T16:14:07.226Z,100009.35
2017-09-10T16:16:35.518Z,99997.59
2017-09-10T16:19:03.920Z,99992.74
2017-09-10T16:21:33.000Z,99995.30
2017-09-10T16:24:01.403Z,99988.73
2017-09-10T16:26:30.481Z,99979.30
2017-09-10T16:28:58.793Z,99983.84
2017-09-10T16:31:27.093Z,99971.19
2017-09-10T16:33:55.436Z,99977.84
2017-09-10T16:36:25.584Z,99979.21
2017-09-10T16:38:53.883Z,99969.89
2017-09-10T16:41:22.601Z,99963.00
2017-09-10T16:43:50.903Z,99970.17
2017-09-10T16:46:19.265Z,99968.41
2017-09-10T16:48:48.361Z,99956.80
2017-09-10T16:51:16.736Z,99955.72
2017-09-10T16:53:45.122Z,99942.48
2017-09-10T16:56:13.434Z,99948.69
2017-09-10T16:58:41.731Z,99951.77
2017-09-10T17:01:10.088Z,99942.34
2017-09-10T17:03:38.399Z,99943.53
2017-09-10T17:06:07.506Z,99937.20
2017-09-10T17:08:37.592Z,99923.58
2017-09-10T17:11:06.169Z,99927.63
2017-09-10T17:13:35.038Z,99916.85
2017-09-10T17:16:03.360Z,99920.08
2017-09-10T17:18:31.647Z,99910.89
2017-09-10T17:21:00.010Z,99908.60
2017-09-10T17:23:28.309Z,99901.03
2017-09-10T17:25:56.641Z,99899.30
2017-09-10T17:28:24.959Z,99885.53
2017-09-10T17:30:53.258Z,99887.55
2017-09-10T17:33:21.561Z,99872.30
2017-09-10T17:35:49.946Z,99872.55
2017-09-10T17:38:19.016Z,99865.64
2017-09-10T17:40:47.430Z,99868.75
2017-09-10T17:43:15.768Z,99862.13
2017-09-10T17:45:49.287Z,99862.11
2017-09-10T17:48:19.666Z,99858.63
2017-09-10T17:50:49.432Z,99865.75
2017-09-10T17:53:17.741Z,99847.28
2017-09-10T17:55:46.830Z,99840.11
2017-09-10T17:58:15.159Z,99845.89
2017-09-10T18:00:43.476Z,99840.64
2017-09-10T18:03:11.789Z,99828.92
2017-09-10T18:05:40.993Z,99823.39
2017-09-10T18:08:10.069Z,99824.32
2017-09-10T18:10:38.363Z,99818.14
2017-09-10T18:13:06.714Z,99810.86
2017-09-10T18:15:35.019Z,99808.83
2017-09-10T18:18:03.327Z,99799.53
2017-09-10T18:20:31.715Z,99811.78
2017-09-10T18:23:00.037Z,99802.89
2017-09-10T18:25:28.360Z,99804.77
2017-09-10T18:27:56.693Z,99796.42
2017-09-10T18:30:25.051Z,99786.72
2017-09-10T18:32:53.373Z,99786.44
2017-09-10T18:35:21.693Z,99786.30
2017-09-10T18:37:50.793Z,99784.01
2017-09-10T18:40:20.782Z,99773.36
2017-09-10T18:42:49.099Z,99783.73
2017-09-10T18:45:18.243Z,99770.96
2017-09-10T18:47:46.558Z,99768.94
2017-09-10T18:50:14.903Z,99775.95
2017-09-10T18:52:43.205Z,99767.86
2017-09-10T18:55:12.387Z,99771.38
2017-09-10T18:57:41.475Z,99764.06
2017-09-10T19:00:09.784Z,99753.97
2017-09-10T19:02:38.066Z,99755.72
2017-09-10T19:05:06.389Z,99740.09
2017-09-10T19:07:35.433Z,99749.25
2017-09-10T19:10:03.799Z,99749.14
2017-09-10T19:12:32.858Z,99745.77
2017-09-10T19:15:01.335Z,99740.23
2017-09-10T19:17:29.991Z,99731.61
2017-09-10T19:19:58.284Z,99733.34
2017-09-10T19:22:26.614Z,99730.23
2017-09-10T19:24:55.693Z,99725.39
2017-09-10T19:27:24.006Z,99723.66
2017-09-10T19:29:52.624Z,99713.55
2017-09-10T19:32:20.995Z,99705.47
2017-09-10T19:34:49.983Z,99687.84
2017-09-10T19:37:18.299Z,99699.28
2017-09-10T19:39:46.595Z,99692.96
2017-09-10T19:42:14.996Z,99693.50
2017-09-10T19:44:43.324Z,99704.27
2017-09-10T19:47:13.023Z,99692.53
2017-09-10T19:49:41.362Z,99701.13
2017-09-10T19:52:09.713Z,99688.29
2017-09-10T19:54:38.021Z,99696.98
2017-09-10T19:57:06.373Z,99698.76
2017-09-10T19:59:34.696Z,99680.56
2017-09-10T20:02:03.058Z,99684.70
2017-09-10T20:04:31.370Z,99673.55
2017-09-10T20:06:59.662Z,99677.31
2017-09-10T20:09:28.841Z,99670.18
2017-09-10T20:11:57.215Z,99651.87
2017-09-10T20:14:25.520Z,99655.89
2017-09-10T20:16:53.852Z,99652.66
2017-09-10T20:19:22.183Z,99652.36
2017-09-10T20:21:50.513Z,99637.00
2017-09-10T20:24:18.857Z,99632.10
2017-09-10T20:26:47.474Z,99630.72
2017-09-10T20:29:15.812Z,99625.97
2017-09-10T20:31:44.124Z,99623.81
2017-09-10T20:34:13.201Z,99618.02
2017-09-10T20:36:41.519Z,99608.84
2017-09-10T20:39:10.591Z,99602.95
2017-09-10T20:41:39.568Z,99591.38
2017-09-10T20:44:07.870Z,99588.84
2017-09-10T20:46:36.194Z,99583.58
2017-09-10T20:49:04.519Z,99572.31
2017-09-10T20:51:32.826Z,99565.87
2017-09-10T20:54:01.907Z,99562.41
2017-09-10T20:56:31.145Z,99569.67
2017-09-10T20:59:01.130Z,99560.95
2017-09-10T21:01:29.418Z,99566.73
2017-09-10T21:03:57.753Z,99544.56
2017-09-10T21:06:26.080Z,99546.45
2017-09-10T21:08:54.391Z,99542.70
2017-09-10T21:11:23.470Z,99541.19
2017-09-10T21:13:51.784Z,99541.73
2017-09-10T21:16:20.185Z,99528.17
2017-09-10T21:18:48.491Z,99530.74
2017-09-10T21:21:17.588Z,99522.14
2017-09-10T21:23:46.580Z,99518.91
2017-09-10T21:26:16.112Z,99516.36
2017-09-10T21:28:44.478Z,99525.78
2017-09-10T21:31:13.619Z,99519.73
2017-09-10T21:33:42.698Z,99515.16
2017-09-10T21:36:10.997Z,99523.89
2017-09-10T21:38:40.089Z,99512.31
2017-09-10T21:41:08.379Z,99506.11
2017-09-10T21:43:37.623Z,99509.30
2017-09-10T21:46:06.627Z,99506.16
2017-09-10T21:48:34.931Z,99500.88
2017-09-10T21:51:04.063Z,99500.13
2017-09-10T21:53:33.368Z,99477.14
2017-09-10T21:56:02.490Z,99477.36
2017-09-10T21:58:32.392Z,99482.33
2017-09-10T22:01:01.491Z,99462.83
2017-09-10T22:03:30.547Z,99468.59
2017-09-10T22:05:59.111Z,99472.61
2017-09-10T22:08:27.563Z,99459.84
2017-09-10T22:10:56.705Z,99452.73
2017-09-10T22:13:25.020Z,99460.91
2017-09-10T22:15:54.050Z,99449.36
2017-09-10T22:18:23.139Z,99447.77
2017-09-10T22:20:52.206Z,99439.70
2017-09-10T22:23:20.496Z,99435.69
2017-09-10T22:25:48.810Z,99436.11
2017-09-10T22:28:17.927Z,99429.41
2017-09-10T22:30:47.657Z,99417.06
2017-09-10T22:33:17.809Z,99410.61
2017-09-10T22:35:46.140Z,99407.13
2017-09-10T22:38:15.228Z,99409.42
2017-09-10T22:40:44.340Z,99417.50
2017-09-10T22:43:12.663Z,99406.48
2017-09-10T22:45:40.967Z,99402.86
2017-09-10T22:48:09.296Z,99398.70
2017-09-10T22:50:37.611Z,99398.16
2017-09-10T22:53:05.899Z,99409.30
2017-09-10T22:55:34.975Z,99394.55
2017-09-10T22:58:03.287Z,99388.48
2017-09-10T23:00:31.712Z,99387.27
2017-09-10T23:03:00.024Z,99377.99
2017-09-10T23:05:28.328Z,99384.17
2017-09-10T23:07:56.631Z,99385.39
2017-09-10T23:10:28.545Z,99377.60
2017-09-10T23:12:56.843Z,99380.97
2017-09-10T23:15:25.180Z,99375.31
2017-09-10T23:17:53.494Z,99360.27
2017-09-10T23:20:22.670Z,99362.68
2017-09-10T23:22:51.794Z,99363.48
2017-09-10T23:25:21.647Z,99368.86
2017-09-10T23:27:50.121Z,99361.61
2017-09-10T23:30:18.432Z,99355.83
2017-09-10T23:35:21.342Z,99352.34
2017-09-10T23:37:51.004Z,99350.05
2017-09-10T23:40:19.302Z,99342.14
2017-09-10T23:42:47.634Z,99335.44
2017-09-10T23:45:17.288Z,99339.70
2017-09-10T23:47:45.658Z,99356.09
2017-09-10T23:50:13.963Z,99363.35
2017-09-10T23:52:42.276Z,99347.25
2017-09-10T23:55:10.588Z,99336.63
2017-09-10T23:57:38.875Z,99328.95
